sensor_id;sensor_type;location;lat;lon;timestamp;temperature;humidity
610;DHT22;292;48.800;9.216;2023-09-19T00:01:35;20.10;75.80
610;DHT22;292;48.800;9.216;2023-09-19T00:04:03;20.20;75.70
610;DHT22;292;48.800;9.216;2023-09-19T00:06:36;20.20;75.70
610;DHT22;292;48.800;9.216;2023-09-19T00:09:03;20.20;75.70
610;DHT22;292;48.800;9.216;2023-09-19T00:11:30;20.20;75.70
610;DHT22;292;48.800;9.216;2023-09-19T00:13:57;20.30;75.50
610;DHT22;292;48.800;9.216;2023-09-19T00:16:26;20.30;75.50
610;DHT22;292;48.800;9.216;2023-09-19T00:18:53;20.30;75.50
610;DHT22;292;48.800;9.216;2023-09-19T00:21:22;20.30;75.40
610;DHT22;292;48.800;9.216;2023-09-19T00:23:49;20.30;75.50
610;DHT22;292;48.800;9.216;2023-09-19T00:26:17;20.30;75.50
610;DHT22;292;48.800;9.216;2023-09-19T00:28:44;20.20;75.50
610;DHT22;292;48.800;9.216;2023-09-19T00:31:11;20.20;75.50
610;DHT22;292;48.800;9.216;2023-09-19T00:33:38;20.20;75.70
610;DHT22;292;48.800;9.216;2023-09-19T00:36:05;20.10;75.80
610;DHT22;292;48.800;9.216;2023-09-19T00:38:34;20.10;75.80
610;DHT22;292;48.800;9.216;2023-09-19T00:41:01;20.10;76.00
610;DHT22;292;48.800;9.216;2023-09-19T00:43:28;20.00;76.10
610;DHT22;292;48.800;9.216;2023-09-19T00:45:56;20.00;76.20
610;DHT22;292;48.800;9.216;2023-09-19T00:48:24;19.90;76.40
610;DHT22;292;48.800;9.216;2023-09-19T00:50:52;19.90;76.50
610;DHT22;292;48.800;9.216;2023-09-19T00:53:21;19.90;76.70
610;DHT22;292;48.800;9.216;2023-09-19T00:55:54;19.90;76.70
610;DHT22;292;48.800;9.216;2023-09-19T00:58:22;19.80;76.70
610;DHT22;292;48.800;9.216;2023-09-19T01:00:49;19.80;76.80
610;DHT22;292;48.800;9.216;2023-09-19T01:03:19;19.80;76.80
610;DHT22;292;48.800;9.216;2023-09-19T01:05:46;19.80;76.80
610;DHT22;292;48.800;9.216;2023-09-19T01:08:12;19.80;76.80
610;DHT22;292;48.800;9.216;2023-09-19T01:10:44;19.80;76.80
610;DHT22;292;48.800;9.216;2023-09-19T01:13:22;19.80;76.80
610;DHT22;292;48.800;9.216;2023-09-19T01:15:59;19.80;76.70
610;DHT22;292;48.800;9.216;2023-09-19T01:18:35;19.80;76.70
610;DHT22;292;48.800;9.216;2023-09-19T01:21:13;19.80;76.70
610;DHT22;292;48.800;9.216;2023-09-19T01:24:25;19.70;77.00
610;DHT22;292;48.800;9.216;2023-09-19T01:30:03;19.70;77.10
610;DHT22;292;48.800;9.216;2023-09-19T01:32:33;19.70;77.10
610;DHT22;292;48.800;9.216;2023-09-19T01:35:03;19.70;77.10
610;DHT22;292;48.800;9.216;2023-09-19T01:37:30;19.70;77.10
610;DHT22;292;48.800;9.216;2023-09-19T01:40:00;19.80;77.10
610;DHT22;292;48.800;9.216;2023-09-19T01:42:42;19.80;77.10
610;DHT22;292;48.800;9.216;2023-09-19T01:45:13;19.80;77.10
610;DHT22;292;48.800;9.216;2023-09-19T01:47:49;19.80;76.80
610;DHT22;292;48.800;9.216;2023-09-19T01:50:24;19.80;76.80
610;DHT22;292;48.800;9.216;2023-09-19T01:52:57;19.80;76.80
610;DHT22;292;48.800;9.216;2023-09-19T01:55:28;19.80;76.80
610;DHT22;292;48.800;9.216;2023-09-19T01:58:01;19.80;76.80
610;DHT22;292;48.800;9.216;2023-09-19T02:00:34;19.80;76.70
610;DHT22;292;48.800;9.216;2023-09-19T02:03:03;19.80;76.50
610;DHT22;292;48.800;9.216;2023-09-19T02:05:30;19.80;76.50
610;DHT22;292;48.800;9.216;2023-09-19T02:07:58;19.80;76.50
610;DHT22;292;48.800;9.216;2023-09-19T02:10:26;19.80;76.40
610;DHT22;292;48.800;9.216;2023-09-19T02:12:53;19.80;76.20
610;DHT22;292;48.800;9.216;2023-09-19T02:15:20;19.80;76.10
610;DHT22;292;48.800;9.216;2023-09-19T02:17:49;19.90;76.00
610;DHT22;292;48.800;9.216;2023-09-19T02:20:16;19.80;75.80
610;DHT22;292;48.800;9.216;2023-09-19T02:22:45;19.90;75.80
610;DHT22;292;48.800;9.216;2023-09-19T02:25:12;19.90;75.70
610;DHT22;292;48.800;9.216;2023-09-19T02:27:40;19.90;75.50
610;DHT22;292;48.800;9.216;2023-09-19T02:30:08;19.90;75.50
610;DHT22;292;48.800;9.216;2023-09-19T02:32:35;19.90;75.50
610;DHT22;292;48.800;9.216;2023-09-19T02:35:07;19.90;75.40
610;DHT22;292;48.800;9.216;2023-09-19T02:37:36;19.90;75.40
610;DHT22;292;48.800;9.216;2023-09-19T02:40:04;19.90;75.20
610;DHT22;292;48.800;9.216;2023-09-19T02:42:44;19.80;75.20
610;DHT22;292;48.800;9.216;2023-09-19T02:45:14;19.80;75.20
610;DHT22;292;48.800;9.216;2023-09-19T02:47:43;19.80;75.20
610;DHT22;292;48.800;9.216;2023-09-19T02:50:12;19.80;75.20
610;DHT22;292;48.800;9.216;2023-09-19T02:52:42;19.70;75.40
610;DHT22;292;48.800;9.216;2023-09-19T02:55:10;19.70;75.40
610;DHT22;292;48.800;9.216;2023-09-19T02:57:37;19.70;75.40
610;DHT22;292;48.800;9.216;2023-09-19T03:00:07;19.70;75.50
610;DHT22;292;48.800;9.216;2023-09-19T03:02:36;19.70;75.50
610;DHT22;292;48.800;9.216;2023-09-19T03:05:04;19.70;75.70
610;DHT22;292;48.800;9.216;2023-09-19T03:07:33;19.70;75.50
610;DHT22;292;48.800;9.216;2023-09-19T03:10:03;19.60;75.70
610;DHT22;292;48.800;9.216;2023-09-19T03:12:31;19.60;75.80
610;DHT22;292;48.800;9.216;2023-09-19T03:14:59;19.60;76.00
610;DHT22;292;48.800;9.216;2023-09-19T03:17:26;19.60;76.00
610;DHT22;292;48.800;9.216;2023-09-19T03:19:53;19.60;76.00
610;DHT22;292;48.800;9.216;2023-09-19T03:22:20;19.60;76.00
610;DHT22;292;48.800;9.216;2023-09-19T03:24:49;19.60;76.10
610;DHT22;292;48.800;9.216;2023-09-19T03:27:16;19.60;76.10
610;DHT22;292;48.800;9.216;2023-09-19T03:29:43;19.60;76.20
610;DHT22;292;48.800;9.216;2023-09-19T03:32:10;19.70;76.20
610;DHT22;292;48.800;9.216;2023-09-19T03:34:37;19.70;76.20
610;DHT22;292;48.800;9.216;2023-09-19T03:37:08;19.70;76.20
610;DHT22;292;48.800;9.216;2023-09-19T03:39:35;19.70;76.10
610;DHT22;292;48.800;9.216;2023-09-19T03:42:04;19.70;76.20
610;DHT22;292;48.800;9.216;2023-09-19T03:44:32;19.70;76.20
610;DHT22;292;48.800;9.216;2023-09-19T03:46:59;19.70;76.20
610;DHT22;292;48.800;9.216;2023-09-19T03:49:26;19.70;76.40
610;DHT22;292;48.800;9.216;2023-09-19T03:51:53;19.80;76.40
610;DHT22;292;48.800;9.216;2023-09-19T03:54:20;19.80;76.20
610;DHT22;292;48.800;9.216;2023-09-19T03:56:47;19.80;76.20
610;DHT22;292;48.800;9.216;2023-09-19T03:59:15;19.80;76.20
610;DHT22;292;48.800;9.216;2023-09-19T04:01:44;19.80;76.20
610;DHT22;292;48.800;9.216;2023-09-19T04:04:12;19.80;76.40
610;DHT22;292;48.800;9.216;2023-09-19T04:06:39;19.80;76.40
610;DHT22;292;48.800;9.216;2023-09-19T04:09:06;19.80;76.50
610;DHT22;292;48.800;9.216;2023-09-19T04:11:34;19.80;76.50
610;DHT22;292;48.800;9.216;2023-09-19T04:14:03;19.80;76.50
610;DHT22;292;48.800;9.216;2023-09-19T04:16:32;19.90;76.50
610;DHT22;292;48.800;9.216;2023-09-19T04:18:59;19.90;76.40
610;DHT22;292;48.800;9.216;2023-09-19T04:21:25;19.90;76.20
610;DHT22;292;48.800;9.216;2023-09-19T04:23:53;20.00;76.20
610;DHT22;292;48.800;9.216;2023-09-19T04:26:20;20.00;76.10
610;DHT22;292;48.800;9.216;2023-09-19T04:28:48;20.10;76.00
610;DHT22;292;48.800;9.216;2023-09-19T04:31:15;20.10;75.70
610;DHT22;292;48.800;9.216;2023-09-19T04:33:43;20.10;75.40
610;DHT22;292;48.800;9.216;2023-09-19T04:36:10;20.10;75.20
610;DHT22;292;48.800;9.216;2023-09-19T04:38:38;20.10;75.20
610;DHT22;292;48.800;9.216;2023-09-19T04:41:05;20.10;75.20
610;DHT22;292;48.800;9.216;2023-09-19T04:43:32;20.10;75.10
610;DHT22;292;48.800;9.216;2023-09-19T04:45:59;20.10;75.20
610;DHT22;292;48.800;9.216;2023-09-19T04:48:26;20.10;75.10
610;DHT22;292;48.800;9.216;2023-09-19T04:50:56;20.10;75.10
610;DHT22;292;48.800;9.216;2023-09-19T04:53:23;20.10;75.10
610;DHT22;292;48.800;9.216;2023-09-19T04:55:50;20.10;75.20
610;DHT22;292;48.800;9.216;2023-09-19T04:58:18;20.00;75.40
610;DHT22;292;48.800;9.216;2023-09-19T05:00:46;20.00;75.50
610;DHT22;292;48.800;9.216;2023-09-19T05:03:13;20.00;76.00
610;DHT22;292;48.800;9.216;2023-09-19T05:05:40;20.00;76.20
610;DHT22;292;48.800;9.216;2023-09-19T05:08:09;20.00;76.70
610;DHT22;292;48.800;9.216;2023-09-19T05:10:36;19.90;77.40
610;DHT22;292;48.800;9.216;2023-09-19T05:13:04;19.90;78.00
610;DHT22;292;48.800;9.216;2023-09-19T05:15:33;19.90;78.40
610;DHT22;292;48.800;9.216;2023-09-19T05:18:01;19.90;79.00
610;DHT22;292;48.800;9.216;2023-09-19T05:20:29;19.90;79.30
610;DHT22;292;48.800;9.216;2023-09-19T05:22:59;19.90;79.60
610;DHT22;292;48.800;9.216;2023-09-19T05:25:29;19.80;79.70
610;DHT22;292;48.800;9.216;2023-09-19T05:27:57;19.80;80.10
610;DHT22;292;48.800;9.216;2023-09-19T05:30:24;19.70;80.40
610;DHT22;292;48.800;9.216;2023-09-19T05:32:53;19.70;81.20
610;DHT22;292;48.800;9.216;2023-09-19T05:35:20;19.60;81.40
610;DHT22;292;48.800;9.216;2023-09-19T05:37:47;19.60;81.60
610;DHT22;292;48.800;9.216;2023-09-19T05:40:16;19.60;81.90
610;DHT22;292;48.800;9.216;2023-09-19T05:42:45;19.50;82.20
610;DHT22;292;48.800;9.216;2023-09-19T05:45:12;19.50;82.50
610;DHT22;292;48.800;9.216;2023-09-19T05:47:40;19.40;82.60
610;DHT22;292;48.800;9.216;2023-09-19T05:50:11;19.30;82.90
610;DHT22;292;48.800;9.216;2023-09-19T05:52:38;19.20;82.60
610;DHT22;292;48.800;9.216;2023-09-19T05:55:06;19.20;82.80
610;DHT22;292;48.800;9.216;2023-09-19T05:57:33;19.10;82.80
610;DHT22;292;48.800;9.216;2023-09-19T06:00:02;19.00;82.90
610;DHT22;292;48.800;9.216;2023-09-19T06:02:35;19.00;83.40
610;DHT22;292;48.800;9.216;2023-09-19T06:05:02;18.90;83.50
610;DHT22;292;48.800;9.216;2023-09-19T06:07:29;18.90;83.40
610;DHT22;292;48.800;9.216;2023-09-19T06:10:02;18.80;83.40
610;DHT22;292;48.800;9.216;2023-09-19T06:12:31;18.70;83.20
610;DHT22;292;48.800;9.216;2023-09-19T06:15:05;18.50;83.10
610;DHT22;292;48.800;9.216;2023-09-19T06:17:34;18.30;82.10
610;DHT22;292;48.800;9.216;2023-09-19T06:20:04;18.20;82.20
610;DHT22;292;48.800;9.216;2023-09-19T06:22:36;18.10;82.40
610;DHT22;292;48.800;9.216;2023-09-19T06:25:04;18.00;82.60
610;DHT22;292;48.800;9.216;2023-09-19T06:27:31;18.00;83.10
610;DHT22;292;48.800;9.216;2023-09-19T06:29:58;18.00;83.40
610;DHT22;292;48.800;9.216;2023-09-19T06:32:28;18.00;83.60
610;DHT22;292;48.800;9.216;2023-09-19T06:34:55;18.00;83.80
610;DHT22;292;48.800;9.216;2023-09-19T06:37:27;18.10;83.90
610;DHT22;292;48.800;9.216;2023-09-19T06:39:54;18.10;84.10
610;DHT22;292;48.800;9.216;2023-09-19T06:42:21;18.10;84.20
610;DHT22;292;48.800;9.216;2023-09-19T06:44:49;18.20;84.20
610;DHT22;292;48.800;9.216;2023-09-19T06:47:16;18.30;84.40
610;DHT22;292;48.800;9.216;2023-09-19T06:49:44;18.30;84.40
610;DHT22;292;48.800;9.216;2023-09-19T06:52:11;18.40;84.40
610;DHT22;292;48.800;9.216;2023-09-19T06:54:39;18.50;84.40
610;DHT22;292;48.800;9.216;2023-09-19T06:57:07;18.60;84.10
610;DHT22;292;48.800;9.216;2023-09-19T06:59:35;18.60;83.50
610;DHT22;292;48.800;9.216;2023-09-19T07:02:04;18.70;83.40
610;DHT22;292;48.800;9.216;2023-09-19T07:04:32;18.70;83.20
610;DHT22;292;48.800;9.216;2023-09-19T07:07:01;18.70;83.20
610;DHT22;292;48.800;9.216;2023-09-19T07:09:27;18.70;83.10
610;DHT22;292;48.800;9.216;2023-09-19T07:11:54;18.80;82.80
610;DHT22;292;48.800;9.216;2023-09-19T07:14:21;18.80;82.80
610;DHT22;292;48.800;9.216;2023-09-19T07:16:48;18.80;82.50
610;DHT22;292;48.800;9.216;2023-09-19T07:19:17;18.90;82.50
610;DHT22;292;48.800;9.216;2023-09-19T07:21:44;18.90;82.20
610;DHT22;292;48.800;9.216;2023-09-19T07:24:14;19.00;82.10
610;DHT22;292;48.800;9.216;2023-09-19T07:26:41;19.00;82.10
610;DHT22;292;48.800;9.216;2023-09-19T07:29:08;19.10;82.10
610;DHT22;292;48.800;9.216;2023-09-19T07:31:35;19.10;81.90
610;DHT22;292;48.800;9.216;2023-09-19T07:34:02;19.10;81.70
610;DHT22;292;48.800;9.216;2023-09-19T07:36:31;19.20;81.40
610;DHT22;292;48.800;9.216;2023-09-19T07:38:58;19.20;80.70
610;DHT22;292;48.800;9.216;2023-09-19T07:41:27;19.20;80.30
610;DHT22;292;48.800;9.216;2023-09-19T07:43:56;19.30;80.10
610;DHT22;292;48.800;9.216;2023-09-19T07:46:23;19.30;80.00
610;DHT22;292;48.800;9.216;2023-09-19T07:48:51;19.30;79.70
610;DHT22;292;48.800;9.216;2023-09-19T07:51:19;19.40;79.30
610;DHT22;292;48.800;9.216;2023-09-19T07:53:46;19.40;79.00
610;DHT22;292;48.800;9.216;2023-09-19T07:56:14;19.50;78.80
610;DHT22;292;48.800;9.216;2023-09-19T07:58:43;19.50;78.60
610;DHT22;292;48.800;9.216;2023-09-19T08:01:11;19.60;78.30
610;DHT22;292;48.800;9.216;2023-09-19T08:03:39;19.60;78.10
610;DHT22;292;48.800;9.216;2023-09-19T08:06:07;19.70;78.00
610;DHT22;292;48.800;9.216;2023-09-19T08:08:35;19.70;78.00
610;DHT22;292;48.800;9.216;2023-09-19T08:11:03;19.80;77.80
610;DHT22;292;48.800;9.216;2023-09-19T08:13:36;19.90;77.50
610;DHT22;292;48.800;9.216;2023-09-19T08:16:08;19.90;77.40
610;DHT22;292;48.800;9.216;2023-09-19T08:18:35;20.00;77.00
610;DHT22;292;48.800;9.216;2023-09-19T08:21:03;20.00;76.80
610;DHT22;292;48.800;9.216;2023-09-19T08:23:30;20.00;76.70
610;DHT22;292;48.800;9.216;2023-09-19T08:25:58;20.10;76.40
610;DHT22;292;48.800;9.216;2023-09-19T08:28:28;20.10;76.20
610;DHT22;292;48.800;9.216;2023-09-19T08:30:55;20.20;76.10
610;DHT22;292;48.800;9.216;2023-09-19T08:33:25;20.30;76.00
610;DHT22;292;48.800;9.216;2023-09-19T08:35:52;20.40;75.70
610;DHT22;292;48.800;9.216;2023-09-19T08:38:19;20.40;75.10
610;DHT22;292;48.800;9.216;2023-09-19T08:40:46;20.40;74.80
610;DHT22;292;48.800;9.216;2023-09-19T08:43:12;20.40;74.50
610;DHT22;292;48.800;9.216;2023-09-19T08:45:40;20.50;74.40
610;DHT22;292;48.800;9.216;2023-09-19T08:48:22;20.60;74.10
610;DHT22;292;48.800;9.216;2023-09-19T08:50:56;20.70;73.40
610;DHT22;292;48.800;9.216;2023-09-19T08:53:31;20.70;72.90
610;DHT22;292;48.800;9.216;2023-09-19T08:56:03;20.80;72.60
610;DHT22;292;48.800;9.216;2023-09-19T08:58:43;20.90;72.40
610;DHT22;292;48.800;9.216;2023-09-19T09:01:14;20.90;71.60
610;DHT22;292;48.800;9.216;2023-09-19T09:03:42;21.00;71.30
610;DHT22;292;48.800;9.216;2023-09-19T09:06:16;20.90;70.60
610;DHT22;292;48.800;9.216;2023-09-19T09:08:44;20.90;70.30
610;DHT22;292;48.800;9.216;2023-09-19T09:11:11;21.00;70.20
610;DHT22;292;48.800;9.216;2023-09-19T09:13:39;21.00;69.80
610;DHT22;292;48.800;9.216;2023-09-19T09:16:07;21.10;69.50
610;DHT22;292;48.800;9.216;2023-09-19T09:18:34;21.10;68.20
610;DHT22;292;48.800;9.216;2023-09-19T09:21:01;21.10;67.30
610;DHT22;292;48.800;9.216;2023-09-19T09:23:31;21.20;67.00
610;DHT22;292;48.800;9.216;2023-09-19T09:25:59;21.20;67.20
610;DHT22;292;48.800;9.216;2023-09-19T09:28:30;21.30;66.60
610;DHT22;292;48.800;9.216;2023-09-19T09:30:58;21.30;66.00
610;DHT22;292;48.800;9.216;2023-09-19T09:33:26;21.30;65.90
610;DHT22;292;48.800;9.216;2023-09-19T09:35:55;21.40;65.10
610;DHT22;292;48.800;9.216;2023-09-19T09:38:24;21.50;63.70
610;DHT22;292;48.800;9.216;2023-09-19T09:40:55;21.50;62.30
610;DHT22;292;48.800;9.216;2023-09-19T09:43:29;21.60;61.50
610;DHT22;292;48.800;9.216;2023-09-19T09:46:12;21.70;61.10
610;DHT22;292;48.800;9.216;2023-09-19T09:49:01;21.70;60.00
610;DHT22;292;48.800;9.216;2023-09-19T09:51:45;21.70;59.80
610;DHT22;292;48.800;9.216;2023-09-19T09:54:15;21.70;59.00
610;DHT22;292;48.800;9.216;2023-09-19T09:56:58;21.70;58.80
610;DHT22;292;48.800;9.216;2023-09-19T09:59:51;21.80;58.40
610;DHT22;292;48.800;9.216;2023-09-19T10:02:24;21.80;58.50
610;DHT22;292;48.800;9.216;2023-09-19T10:04:55;21.80;58.60
610;DHT22;292;48.800;9.216;2023-09-19T10:07:35;21.90;58.50
610;DHT22;292;48.800;9.216;2023-09-19T10:10:04;22.10;58.50
610;DHT22;292;48.800;9.216;2023-09-19T10:12:44;22.20;57.80
610;DHT22;292;48.800;9.216;2023-09-19T10:15:15;22.20;57.40
610;DHT22;292;48.800;9.216;2023-09-19T10:17:43;22.30;57.00
610;DHT22;292;48.800;9.216;2023-09-19T10:20:13;22.30;56.10
610;DHT22;292;48.800;9.216;2023-09-19T10:23:06;22.20;55.30
610;DHT22;292;48.800;9.216;2023-09-19T10:25:39;22.20;55.30
610;DHT22;292;48.800;9.216;2023-09-19T10:28:10;22.20;55.30
610;DHT22;292;48.800;9.216;2023-09-19T10:30:41;22.10;55.00
610;DHT22;292;48.800;9.216;2023-09-19T10:33:11;22.20;55.00
610;DHT22;292;48.800;9.216;2023-09-19T10:35:39;22.30;55.00
610;DHT22;292;48.800;9.216;2023-09-19T10:38:10;22.30;54.80
610;DHT22;292;48.800;9.216;2023-09-19T10:40:38;22.30;54.50
610;DHT22;292;48.800;9.216;2023-09-19T10:43:15;22.30;54.10
610;DHT22;292;48.800;9.216;2023-09-19T10:45:44;22.40;54.10
610;DHT22;292;48.800;9.216;2023-09-19T10:48:15;22.50;54.00
610;DHT22;292;48.800;9.216;2023-09-19T10:50:46;22.60;53.40
610;DHT22;292;48.800;9.216;2023-09-19T10:53:16;22.70;53.20
610;DHT22;292;48.800;9.216;2023-09-19T10:55:50;22.80;53.00
610;DHT22;292;48.800;9.216;2023-09-19T10:58:27;22.90;52.90
610;DHT22;292;48.800;9.216;2023-09-19T11:00:56;23.00;52.60
610;DHT22;292;48.800;9.216;2023-09-19T11:03:27;23.10;52.20
610;DHT22;292;48.800;9.216;2023-09-19T11:06:05;23.20;51.20
610;DHT22;292;48.800;9.216;2023-09-19T11:08:57;23.30;51.00
610;DHT22;292;48.800;9.216;2023-09-19T11:11:42;23.40;50.60
610;DHT22;292;48.800;9.216;2023-09-19T11:14:28;23.50;50.90
610;DHT22;292;48.800;9.216;2023-09-19T11:17:29;23.60;50.90
610;DHT22;292;48.800;9.216;2023-09-19T11:20:27;23.60;50.10
610;DHT22;292;48.800;9.216;2023-09-19T11:23:23;23.50;50.90
610;DHT22;292;48.800;9.216;2023-09-19T11:25:50;23.60;51.00
610;DHT22;292;48.800;9.216;2023-09-19T11:28:32;23.70;50.80
610;DHT22;292;48.800;9.216;2023-09-19T11:34:44;23.80;49.20
610;DHT22;292;48.800;9.216;2023-09-19T11:40:33;23.90;48.00
610;DHT22;292;48.800;9.216;2023-09-19T11:43:33;23.90;47.80
610;DHT22;292;48.800;9.216;2023-09-19T11:46:18;24.00;47.40
610;DHT22;292;48.800;9.216;2023-09-19T11:48:48;24.10;46.80
610;DHT22;292;48.800;9.216;2023-09-19T11:51:17;24.10;46.10
610;DHT22;292;48.800;9.216;2023-09-19T11:53:48;24.10;46.10
610;DHT22;292;48.800;9.216;2023-09-19T11:56:17;24.30;45.80
610;DHT22;292;48.800;9.216;2023-09-19T11:58:45;24.30;45.60
610;DHT22;292;48.800;9.216;2023-09-19T12:01:16;24.40;45.30
610;DHT22;292;48.800;9.216;2023-09-19T12:03:53;24.50;45.30
610;DHT22;292;48.800;9.216;2023-09-19T12:06:20;24.70;45.30
610;DHT22;292;48.800;9.216;2023-09-19T12:08:47;24.70;44.90
610;DHT22;292;48.800;9.216;2023-09-19T12:11:16;24.80;44.60
610;DHT22;292;48.800;9.216;2023-09-19T12:13:46;24.80;44.40
610;DHT22;292;48.800;9.216;2023-09-19T12:16:17;24.80;44.20
610;DHT22;292;48.800;9.216;2023-09-19T12:18:48;24.80;44.10
610;DHT22;292;48.800;9.216;2023-09-19T12:21:23;24.80;44.20
610;DHT22;292;48.800;9.216;2023-09-19T12:24:06;24.80;44.50
610;DHT22;292;48.800;9.216;2023-09-19T12:26:43;24.90;44.80
610;DHT22;292;48.800;9.216;2023-09-19T12:29:15;24.90;44.50
610;DHT22;292;48.800;9.216;2023-09-19T12:32:04;25.00;44.80
610;DHT22;292;48.800;9.216;2023-09-19T12:34:32;25.10;44.40
610;DHT22;292;48.800;9.216;2023-09-19T12:37:08;25.20;44.00
610;DHT22;292;48.800;9.216;2023-09-19T12:39:42;25.10;43.80
610;DHT22;292;48.800;9.216;2023-09-19T12:42:15;25.00;44.00
610;DHT22;292;48.800;9.216;2023-09-19T12:44:43;24.90;44.10
610;DHT22;292;48.800;9.216;2023-09-19T12:47:15;24.90;44.40
610;DHT22;292;48.800;9.216;2023-09-19T12:50:08;25.00;44.60
610;DHT22;292;48.800;9.216;2023-09-19T12:52:39;25.10;44.40
610;DHT22;292;48.800;9.216;2023-09-19T12:55:07;25.20;44.10
610;DHT22;292;48.800;9.216;2023-09-19T12:57:36;25.30;44.00
610;DHT22;292;48.800;9.216;2023-09-19T13:00:05;25.40;44.40
610;DHT22;292;48.800;9.216;2023-09-19T13:02:34;25.50;43.70
610;DHT22;292;48.800;9.216;2023-09-19T13:05:01;25.40;43.00
610;DHT22;292;48.800;9.216;2023-09-19T13:07:42;25.40;42.80
610;DHT22;292;48.800;9.216;2023-09-19T13:10:11;25.40;42.90
610;DHT22;292;48.800;9.216;2023-09-19T13:12:42;25.30;43.00
610;DHT22;292;48.800;9.216;2023-09-19T13:15:10;25.30;43.20
610;DHT22;292;48.800;9.216;2023-09-19T13:17:44;25.40;43.30
610;DHT22;292;48.800;9.216;2023-09-19T13:20:22;25.40;42.90
610;DHT22;292;48.800;9.216;2023-09-19T13:22:53;25.30;43.00
610;DHT22;292;48.800;9.216;2023-09-19T13:25:25;25.30;43.20
610;DHT22;292;48.800;9.216;2023-09-19T13:27:56;25.20;42.90
610;DHT22;292;48.800;9.216;2023-09-19T13:30:25;25.00;43.20
610;DHT22;292;48.800;9.216;2023-09-19T13:33:04;24.90;43.60
610;DHT22;292;48.800;9.216;2023-09-19T13:35:32;24.90;44.00
610;DHT22;292;48.800;9.216;2023-09-19T13:37:59;24.90;44.00
610;DHT22;292;48.800;9.216;2023-09-19T13:40:26;25.00;44.20
610;DHT22;292;48.800;9.216;2023-09-19T13:42:56;25.10;44.50
610;DHT22;292;48.800;9.216;2023-09-19T13:45:23;25.20;43.60
610;DHT22;292;48.800;9.216;2023-09-19T13:47:57;25.30;43.20
610;DHT22;292;48.800;9.216;2023-09-19T13:50:24;25.40;43.20
610;DHT22;292;48.800;9.216;2023-09-19T13:52:55;25.40;43.30
610;DHT22;292;48.800;9.216;2023-09-19T13:55:23;25.50;42.90
610;DHT22;292;48.800;9.216;2023-09-19T13:57:50;25.60;42.90
610;DHT22;292;48.800;9.216;2023-09-19T14:00:20;25.50;43.00
610;DHT22;292;48.800;9.216;2023-09-19T14:02:48;25.40;43.60
610;DHT22;292;48.800;9.216;2023-09-19T14:05:18;25.40;44.10
610;DHT22;292;48.800;9.216;2023-09-19T14:07:46;25.40;44.40
610;DHT22;292;48.800;9.216;2023-09-19T14:10:13;25.40;44.20
610;DHT22;292;48.800;9.216;2023-09-19T14:12:40;25.50;43.70
610;DHT22;292;48.800;9.216;2023-09-19T14:15:08;25.50;43.40
610;DHT22;292;48.800;9.216;2023-09-19T14:17:35;25.60;43.30
610;DHT22;292;48.800;9.216;2023-09-19T14:20:03;25.70;42.80
610;DHT22;292;48.800;9.216;2023-09-19T14:22:33;25.80;42.50
610;DHT22;292;48.800;9.216;2023-09-19T14:25:01;25.80;42.50
610;DHT22;292;48.800;9.216;2023-09-19T14:27:29;25.70;41.80
610;DHT22;292;48.800;9.216;2023-09-19T14:29:56;25.60;42.00
610;DHT22;292;48.800;9.216;2023-09-19T14:32:23;25.50;42.40
610;DHT22;292;48.800;9.216;2023-09-19T14:34:51;25.50;42.50
610;DHT22;292;48.800;9.216;2023-09-19T14:37:18;25.40;42.50
610;DHT22;292;48.800;9.216;2023-09-19T14:39:48;25.40;42.60
610;DHT22;292;48.800;9.216;2023-09-19T14:42:15;25.30;42.50
610;DHT22;292;48.800;9.216;2023-09-19T14:44:43;25.30;42.40
610;DHT22;292;48.800;9.216;2023-09-19T14:47:10;25.30;42.10
610;DHT22;292;48.800;9.216;2023-09-19T14:49:39;25.30;42.20
610;DHT22;292;48.800;9.216;2023-09-19T14:52:08;25.30;42.50
610;DHT22;292;48.800;9.216;2023-09-19T14:54:35;25.40;42.60
610;DHT22;292;48.800;9.216;2023-09-19T14:57:05;25.40;42.60
610;DHT22;292;48.800;9.216;2023-09-19T14:59:34;25.50;42.80
610;DHT22;292;48.800;9.216;2023-09-19T15:02:02;25.60;42.40
610;DHT22;292;48.800;9.216;2023-09-19T15:04:30;25.60;42.10
610;DHT22;292;48.800;9.216;2023-09-19T15:06:57;25.70;41.70
610;DHT22;292;48.800;9.216;2023-09-19T15:09:24;25.60;41.60
610;DHT22;292;48.800;9.216;2023-09-19T15:11:51;25.60;41.40
610;DHT22;292;48.800;9.216;2023-09-19T15:14:20;25.60;41.00
610;DHT22;292;48.800;9.216;2023-09-19T15:16:47;25.60;40.90
610;DHT22;292;48.800;9.216;2023-09-19T15:19:14;25.60;41.20
610;DHT22;292;48.800;9.216;2023-09-19T15:21:43;25.50;40.90
610;DHT22;292;48.800;9.216;2023-09-19T15:24:10;25.50;41.00
610;DHT22;292;48.800;9.216;2023-09-19T15:26:37;25.60;41.20
610;DHT22;292;48.800;9.216;2023-09-19T15:29:05;25.50;41.00
610;DHT22;292;48.800;9.216;2023-09-19T15:31:34;25.50;40.90
610;DHT22;292;48.800;9.216;2023-09-19T15:34:02;25.50;41.00
610;DHT22;292;48.800;9.216;2023-09-19T15:36:30;25.50;41.20
610;DHT22;292;48.800;9.216;2023-09-19T15:38:59;25.50;41.20
610;DHT22;292;48.800;9.216;2023-09-19T15:41:27;25.40;41.30
610;DHT22;292;48.800;9.216;2023-09-19T15:43:55;25.40;41.00
610;DHT22;292;48.800;9.216;2023-09-19T15:46:23;25.30;40.90
610;DHT22;292;48.800;9.216;2023-09-19T15:48:53;25.20;40.90
610;DHT22;292;48.800;9.216;2023-09-19T15:51:20;25.20;40.90
610;DHT22;292;48.800;9.216;2023-09-19T15:53:48;25.20;41.00
610;DHT22;292;48.800;9.216;2023-09-19T15:56:23;25.10;41.00
610;DHT22;292;48.800;9.216;2023-09-19T15:58:51;25.00;41.20
610;DHT22;292;48.800;9.216;2023-09-19T16:01:18;25.00;41.60
610;DHT22;292;48.800;9.216;2023-09-19T16:03:48;25.00;42.10
610;DHT22;292;48.800;9.216;2023-09-19T16:06:18;24.90;42.00
610;DHT22;292;48.800;9.216;2023-09-19T16:08:47;24.90;42.10
610;DHT22;292;48.800;9.216;2023-09-19T16:11:14;24.90;42.20
610;DHT22;292;48.800;9.216;2023-09-19T16:13:42;24.90;42.40
610;DHT22;292;48.800;9.216;2023-09-19T16:16:11;24.80;42.40
610;DHT22;292;48.800;9.216;2023-09-19T16:18:44;24.80;42.60
610;DHT22;292;48.800;9.216;2023-09-19T16:21:11;24.80;42.80
610;DHT22;292;48.800;9.216;2023-09-19T16:23:40;24.80;42.60
610;DHT22;292;48.800;9.216;2023-09-19T16:26:08;24.80;42.40
610;DHT22;292;48.800;9.216;2023-09-19T16:28:36;24.80;42.40
610;DHT22;292;48.800;9.216;2023-09-19T16:31:04;24.80;42.50
610;DHT22;292;48.800;9.216;2023-09-19T16:33:32;24.70;42.80
610;DHT22;292;48.800;9.216;2023-09-19T16:35:59;24.70;42.90
610;DHT22;292;48.800;9.216;2023-09-19T16:38:27;24.60;43.00
610;DHT22;292;48.800;9.216;2023-09-19T16:40:58;24.60;43.30
610;DHT22;292;48.800;9.216;2023-09-19T16:43:26;24.60;43.60
610;DHT22;292;48.800;9.216;2023-09-19T16:45:53;24.50;43.60
610;DHT22;292;48.800;9.216;2023-09-19T16:48:20;24.60;43.60
610;DHT22;292;48.800;9.216;2023-09-19T16:50:48;24.50;43.70
610;DHT22;292;48.800;9.216;2023-09-19T16:53:16;24.50;43.80
610;DHT22;292;48.800;9.216;2023-09-19T16:55:45;24.50;44.10
610;DHT22;292;48.800;9.216;2023-09-19T16:58:14;24.40;44.00
610;DHT22;292;48.800;9.216;2023-09-19T17:00:41;24.40;44.20
610;DHT22;292;48.800;9.216;2023-09-19T17:03:09;24.40;44.20